createdAt,value
2019-03-30T00:00:52.637Z,63.94
2019-03-30T00:03:19.259Z,63.19
2019-03-30T00:05:46.005Z,63.16
2019-03-30T00:08:12.745Z,63.83
2019-03-30T00:10:40.613Z,64.02
2019-03-30T00:13:07.271Z,63.61
2019-03-30T00:15:33.958Z,64.08
2019-03-30T00:18:00.584Z,63.84
2019-03-30T00:20:27.365Z,63.98
2019-03-30T00:22:54.107Z,63.90
2019-03-30T00:25:20.845Z,64.36
2019-03-30T00:27:47.598Z,64.32
2019-03-30T00:30:14.292Z,64.67
2019-03-30T00:32:41.018Z,65.50
2019-03-30T00:35:07.750Z,65.68
2019-03-30T00:37:34.487Z,64.67
2019-03-30T00:40:01.111Z,64.32
2019-03-30T00:42:28.783Z,64.21
2019-03-30T00:44:55.482Z,64.18
2019-03-30T00:47:22.105Z,65.74
2019-03-30T00:49:50.218Z,66.54
2019-03-30T00:52:17.135Z,67.65
2019-03-30T00:54:43.756Z,67.16
2019-03-30T00:57:10.495Z,66.78
2019-03-30T00:59:37.188Z,66.24
2019-03-30T01:02:03.839Z,66.06
2019-03-30T01:04:30.563Z,65.54
2019-03-30T01:06:57.262Z,65.91
2019-03-30T01:09:23.995Z,65.18
2019-03-30T01:11:50.836Z,65.36
2019-03-30T01:14:17.674Z,65.49
2019-03-30T01:16:44.319Z,65.82
2019-03-30T01:19:11.054Z,65.33
2019-03-30T01:21:38.305Z,64.91
2019-03-30T01:24:05.041Z,64.57
2019-03-30T01:26:31.782Z,64.70
2019-03-30T01:28:58.620Z,64.69
2019-03-30T01:31:26.484Z,64.99
2019-03-30T01:33:53.224Z,65.45
2019-03-30T01:36:19.971Z,65.87
2019-03-30T01:38:46.602Z,65.99
2019-03-30T01:41:13.369Z,66.17
2019-03-30T01:43:40.046Z,65.90
2019-03-30T01:46:06.654Z,66.48
2019-03-30T01:48:33.358Z,66.98
2019-03-30T01:51:00.190Z,66.89
2019-03-30T01:53:26.836Z,67.38
2019-03-30T01:55:53.468Z,66.90
2019-03-30T01:58:20.157Z,66.52
2019-03-30T02:00:46.756Z,66.62
2019-03-30T02:03:13.382Z,68.51
2019-03-30T02:05:40.073Z,67.93
2019-03-30T02:08:06.749Z,67.53
2019-03-30T02:10:39.854Z,67.52
2019-03-30T02:13:07.512Z,67.15
2019-03-30T02:15:34.227Z,67.28
2019-03-30T02:18:00.921Z,68.30
2019-03-30T02:20:36.900Z,69.14
2019-03-30T02:23:03.487Z,68.11
2019-03-30T02:25:30.217Z,67.89
2019-03-30T02:27:56.955Z,67.00
2019-03-30T02:30:24.314Z,66.87
2019-03-30T02:32:51.060Z,66.74
2019-03-30T02:35:17.787Z,68.49
2019-03-30T02:37:44.431Z,68.06
2019-03-30T02:40:11.164Z,67.13
2019-03-30T02:42:37.913Z,67.53
2019-03-30T02:45:05.540Z,67.95
2019-03-30T02:47:33.540Z,66.93
2019-03-30T02:50:00.579Z,66.71
2019-03-30T02:52:27.334Z,66.88
2019-03-30T02:54:54.033Z,67.30
2019-03-30T02:57:20.762Z,66.92
2019-03-30T02:59:47.501Z,67.04
2019-03-30T03:02:14.285Z,67.15
2019-03-30T03:04:41.013Z,66.41
2019-03-30T03:07:07.610Z,66.34
2019-03-30T03:09:34.257Z,67.66
2019-03-30T03:12:01.024Z,67.48
2019-03-30T03:14:27.898Z,67.73
2019-03-30T03:16:54.615Z,66.87
2019-03-30T03:19:21.276Z,67.34
2019-03-30T03:21:47.901Z,67.79
2019-03-30T03:24:14.635Z,69.17
2019-03-30T03:26:41.346Z,68.68
2019-03-30T03:29:08.098Z,69.34
2019-03-30T03:31:34.905Z,69.16
2019-03-30T03:34:01.606Z,69.11
2019-03-30T03:36:28.218Z,68.86
2019-03-30T03:38:54.991Z,68.77
2019-03-30T03:41:21.712Z,69.45
2019-03-30T03:43:48.448Z,70.13
2019-03-30T03:46:15.067Z,69.73
2019-03-30T03:48:41.810Z,70.00
2019-03-30T03:51:24.754Z,69.77
2019-03-30T03:53:38.021Z,68.85
2019-03-30T03:56:04.730Z,68.66
2019-03-30T03:58:33.457Z,67.80
2019-03-30T04:01:01.275Z,67.79
2019-03-30T04:03:31.030Z,67.45
2019-03-30T04:05:58.025Z,67.64
2019-03-30T04:08:27.305Z,67.69
2019-03-30T04:10:55.342Z,67.43
2019-03-30T04:13:25.603Z,67.67
2019-03-30T04:15:52.394Z,67.81
2019-03-30T04:18:19.187Z,67.93
2019-03-30T04:20:45.989Z,68.18
2019-03-30T04:23:12.675Z,68.58
2019-03-30T04:25:39.393Z,68.76
2019-03-30T04:28:06.027Z,70.17
2019-03-30T04:30:32.660Z,71.36
2019-03-30T04:32:59.332Z,70.44
2019-03-30T04:35:26.053Z,69.92
2019-03-30T04:37:52.771Z,69.62
2019-03-30T04:40:19.483Z,68.89
2019-03-30T04:42:46.211Z,69.05
2019-03-30T04:45:12.866Z,70.28
2019-03-30T04:47:39.588Z,71.03
2019-03-30T04:50:06.579Z,70.00
2019-03-30T04:52:33.188Z,69.19
2019-03-30T04:54:59.854Z,68.99
2019-03-30T04:57:26.471Z,68.73
2019-03-30T04:59:53.122Z,69.11
2019-03-30T05:02:19.771Z,69.26
2019-03-30T05:04:46.561Z,69.34
2019-03-30T05:07:13.463Z,69.84
2019-03-30T05:09:40.186Z,69.68
2019-03-30T05:12:06.817Z,69.40
2019-03-30T05:14:33.410Z,69.58
2019-03-30T05:17:00.163Z,69.14
2019-03-30T05:19:26.895Z,69.23
2019-03-30T05:21:53.540Z,69.47
2019-03-30T05:24:20.249Z,69.54
2019-03-30T05:26:46.865Z,69.83
2019-03-30T05:29:13.514Z,71.30
2019-03-30T05:31:41.226Z,70.97
2019-03-30T05:34:07.893Z,70.73
2019-03-30T05:36:34.537Z,70.65
2019-03-30T05:39:01.266Z,70.74
2019-03-30T05:41:29.583Z,71.62
2019-03-30T05:43:56.263Z,73.15
2019-03-30T05:46:22.944Z,73.84
2019-03-30T05:48:49.597Z,74.41
2019-03-30T05:51:16.299Z,74.25
2019-03-30T05:53:42.986Z,73.36
2019-03-30T05:56:09.694Z,73.32
2019-03-30T05:58:36.491Z,72.76
2019-03-30T06:01:03.227Z,72.56
2019-03-30T06:03:29.821Z,72.54
2019-03-30T06:05:56.509Z,72.86
2019-03-30T06:08:23.204Z,72.98
2019-03-30T06:10:49.926Z,73.21
2019-03-30T06:13:16.692Z,72.97
2019-03-30T06:15:43.420Z,73.27
2019-03-30T06:18:11.493Z,72.99
2019-03-30T06:20:38.319Z,73.31
2019-03-30T06:23:05.128Z,73.51
2019-03-30T06:25:31.770Z,74.40
2019-03-30T06:27:58.518Z,73.98
2019-03-30T06:30:26.734Z,73.46
2019-03-30T06:32:53.545Z,71.93
2019-03-30T06:35:20.233Z,71.60
2019-03-30T06:37:46.927Z,69.76
2019-03-30T06:40:14.239Z,69.43
2019-03-30T06:42:40.917Z,69.23
2019-03-30T06:45:07.785Z,69.74
2019-03-30T06:47:34.480Z,69.05
2019-03-30T06:50:01.285Z,66.91
2019-03-30T06:52:28.027Z,66.72
2019-03-30T06:54:54.713Z,66.19
2019-03-30T06:57:21.386Z,64.72
2019-03-30T06:59:48.110Z,64.24
2019-03-30T07:02:15.150Z,65.53
2019-03-30T07:04:41.836Z,63.38
2019-03-30T07:07:09.209Z,62.91
2019-03-30T07:09:37.807Z,62.62
2019-03-30T07:12:05.812Z,62.35
2019-03-30T07:14:36.148Z,61.25
2019-03-30T07:17:02.905Z,61.86
2019-03-30T07:19:32.082Z,60.64
2019-03-30T07:21:58.868Z,60.15
2019-03-30T07:24:25.513Z,58.53
2019-03-30T07:26:52.233Z,58.83
2019-03-30T07:29:18.922Z,60.32
2019-03-30T07:31:45.671Z,58.34
2019-03-30T07:34:12.410Z,57.07
2019-03-30T07:36:39.200Z,57.66
2019-03-30T07:39:05.913Z,57.14
2019-03-30T07:41:32.644Z,56.43
2019-03-30T07:43:59.322Z,56.16
2019-03-30T07:46:26.019Z,55.93
2019-03-30T07:48:52.767Z,54.70
2019-03-30T07:51:19.489Z,54.02
2019-03-30T07:53:46.115Z,53.72
2019-03-30T07:56:12.738Z,53.44
2019-03-30T07:58:39.488Z,55.24
2019-03-30T08:01:06.092Z,54.22
2019-03-30T08:03:32.712Z,54.78
2019-03-30T08:05:59.470Z,55.84
2019-03-30T08:08:26.070Z,54.53
2019-03-30T08:10:52.655Z,53.37
2019-03-30T08:13:19.342Z,53.54
2019-03-30T08:15:45.941Z,55.26
2019-03-30T08:18:12.549Z,52.66
2019-03-30T08:20:39.345Z,52.83
2019-03-30T08:23:05.946Z,50.76
2019-03-30T08:25:32.632Z,50.75
2019-03-30T08:27:59.353Z,49.61
2019-03-30T08:30:26.086Z,52.58
2019-03-30T08:32:52.862Z,51.23
2019-03-30T08:35:20.567Z,51.58
2019-03-30T08:37:47.192Z,47.41
2019-03-30T08:40:13.900Z,47.06
2019-03-30T08:42:40.583Z,48.02
2019-03-30T08:45:07.805Z,46.19
2019-03-30T08:47:34.546Z,48.18
2019-03-30T08:50:01.243Z,48.34
2019-03-30T08:52:27.874Z,46.57
2019-03-30T08:54:54.554Z,46.21
2019-03-30T08:57:22.355Z,44.49
2019-03-30T08:59:49.013Z,44.52
2019-03-30T09:02:15.714Z,44.72
2019-03-30T09:04:42.405Z,44.64
2019-03-30T09:07:09.089Z,44.21
2019-03-30T09:09:35.718Z,47.83
2019-03-30T09:12:02.445Z,41.73
2019-03-30T09:14:29.060Z,41.36
2019-03-30T09:16:55.737Z,40.96
2019-03-30T09:19:22.431Z,39.23
2019-03-30T09:21:49.154Z,40.31
2019-03-30T09:24:15.885Z,39.76
2019-03-30T09:26:42.597Z,40.99
2019-03-30T09:29:09.215Z,37.51
2019-03-30T09:31:36.844Z,36.38
2019-03-30T09:34:03.678Z,36.57
2019-03-30T09:36:30.288Z,37.82
2019-03-30T09:38:56.891Z,34.11
2019-03-30T09:41:23.579Z,34.29
2019-03-30T09:43:50.167Z,34.81
2019-03-30T09:46:16.828Z,36.86
2019-03-30T09:48:44.522Z,34.83
2019-03-30T09:51:11.111Z,35.91
2019-03-30T09:53:37.728Z,33.41
2019-03-30T09:56:04.411Z,33.83
2019-03-30T09:58:31.003Z,35.57
2019-03-30T10:00:57.713Z,30.57
2019-03-30T10:03:24.399Z,33.83
2019-03-30T10:05:51.234Z,33.01
2019-03-30T10:08:17.883Z,34.48
2019-03-30T10:10:44.603Z,33.41
2019-03-30T10:13:11.202Z,30.81
2019-03-30T10:15:38.026Z,30.40
2019-03-30T10:18:04.621Z,32.92
2019-03-30T10:20:31.343Z,29.60
2019-03-30T10:22:57.993Z,28.75
2019-03-30T10:25:24.694Z,33.70
2019-03-30T10:27:51.413Z,34.91
2019-03-30T10:30:18.085Z,30.63
2019-03-30T10:32:44.714Z,29.84
2019-03-30T10:35:11.450Z,30.38
2019-03-30T10:37:38.188Z,27.71
2019-03-30T10:40:08.822Z,27.62
2019-03-30T10:42:35.548Z,28.09
2019-03-30T10:45:03.461Z,28.57
2019-03-30T10:47:30.334Z,29.70
2019-03-30T10:49:57.042Z,30.22
2019-03-30T10:52:23.745Z,29.97
2019-03-30T10:54:53.064Z,31.21
2019-03-30T10:57:19.057Z,28.25
2019-03-30T10:59:45.678Z,28.74
2019-03-30T11:02:13.343Z,29.79
2019-03-30T11:04:40.068Z,28.65
2019-03-30T11:07:06.710Z,29.40
2019-03-30T11:09:33.443Z,28.91
2019-03-30T11:12:00.111Z,30.40
2019-03-30T11:14:26.747Z,29.46
2019-03-30T11:16:53.369Z,28.57
2019-03-30T11:19:20.094Z,27.19
2019-03-30T11:21:46.707Z,26.81
2019-03-30T11:24:13.451Z,28.02
2019-03-30T11:26:40.180Z,27.72
2019-03-30T11:29:06.793Z,27.79
2019-03-30T11:31:33.482Z,27.64
2019-03-30T11:34:00.189Z,25.93
2019-03-30T11:36:26.888Z,27.19
2019-03-30T11:38:53.537Z,28.06
2019-03-30T11:41:20.297Z,28.74
2019-03-30T11:43:46.908Z,25.24
2019-03-30T11:46:13.591Z,27.71
2019-03-30T11:48:40.358Z,25.86
2019-03-30T11:51:07.008Z,25.56
2019-03-30T11:53:33.633Z,25.36
2019-03-30T11:56:00.357Z,25.41
2019-03-30T11:58:26.970Z,24.76
2019-03-30T12:00:53.645Z,22.39
2019-03-30T12:03:20.340Z,24.44
2019-03-30T12:05:46.995Z,24.20
2019-03-30T12:08:13.651Z,24.65
2019-03-30T12:10:40.474Z,24.98
2019-03-30T12:13:07.219Z,24.93
2019-03-30T12:15:33.935Z,24.61
2019-03-30T12:18:00.658Z,22.43
2019-03-30T12:20:27.276Z,22.80
2019-03-30T12:22:53.961Z,25.61
2019-03-30T12:25:34.553Z,24.53
2019-03-30T12:27:50.010Z,25.16
2019-03-30T12:30:16.914Z,23.73
2019-03-30T12:32:43.681Z,22.05
2019-03-30T12:35:10.299Z,24.96
2019-03-30T12:37:37.006Z,24.53
2019-03-30T12:40:05.284Z,26.21
2019-03-30T12:42:31.930Z,25.11
2019-03-30T12:44:58.640Z,22.86
2019-03-30T12:47:25.349Z,22.86
2019-03-30T12:49:52.032Z,22.87
2019-03-30T12:52:18.670Z,25.55
2019-03-30T12:54:45.488Z,23.72
2019-03-30T12:57:12.152Z,24.29
2019-03-30T12:59:38.848Z,22.64
2019-03-30T13:02:05.578Z,23.12
2019-03-30T13:04:32.239Z,24.49
2019-03-30T13:06:58.898Z,24.58
2019-03-30T13:09:25.605Z,24.46
2019-03-30T13:11:52.210Z,25.13
2019-03-30T13:14:18.848Z,23.78
2019-03-30T13:16:45.639Z,22.18
2019-03-30T13:19:12.337Z,22.85
2019-03-30T13:21:52.078Z,23.01
2019-03-30T13:24:07.597Z,23.87
2019-03-30T13:26:34.278Z,26.00
2019-03-30T13:29:00.925Z,26.30
2019-03-30T13:31:27.634Z,25.77
2019-03-30T13:33:54.230Z,25.42
2019-03-30T13:36:22.707Z,22.04
2019-03-30T13:38:49.384Z,24.42
2019-03-30T13:41:16.124Z,22.93
2019-03-30T13:43:42.812Z,23.28
2019-03-30T13:46:09.541Z,22.09
2019-03-30T13:48:37.222Z,23.47
2019-03-30T13:51:03.862Z,22.51
2019-03-30T13:53:30.565Z,24.95
2019-03-30T13:55:57.249Z,24.76
2019-03-30T13:58:23.971Z,23.71
2019-03-30T14:00:50.651Z,23.71
2019-03-30T14:03:17.310Z,22.97
2019-03-30T14:05:43.954Z,24.00
2019-03-30T14:08:10.709Z,20.84
2019-03-30T14:10:39.004Z,21.88
2019-03-30T14:13:05.890Z,21.62
2019-03-30T14:15:32.555Z,22.82
2019-03-30T14:17:59.178Z,21.96
2019-03-30T14:20:26.073Z,25.66
2019-03-30T14:22:52.872Z,21.97
2019-03-30T14:25:19.503Z,22.38
2019-03-30T14:27:47.207Z,23.18
2019-03-30T14:30:14.444Z,23.24
2019-03-30T14:32:41.134Z,20.72
2019-03-30T14:35:07.856Z,21.05
2019-03-30T14:37:34.577Z,21.61
2019-03-30T14:40:01.165Z,21.89
2019-03-30T14:42:27.857Z,22.40
2019-03-30T14:44:54.523Z,22.58
2019-03-30T14:47:21.210Z,23.91
2019-03-30T14:49:47.852Z,22.05
2019-03-30T14:52:14.644Z,21.89
2019-03-30T14:54:52.012Z,21.94
2019-03-30T14:57:09.850Z,21.66
2019-03-30T14:59:36.519Z,22.92
2019-03-30T15:02:03.152Z,21.99
2019-03-30T15:04:29.798Z,24.16
2019-03-30T15:06:56.509Z,24.33
2019-03-30T15:09:23.116Z,21.77
2019-03-30T15:11:49.806Z,22.11
2019-03-30T15:14:16.512Z,21.97
2019-03-30T15:16:44.135Z,22.79
2019-03-30T15:19:10.793Z,21.75
2019-03-30T15:21:37.516Z,22.07
2019-03-30T15:24:04.360Z,23.24
2019-03-30T15:26:31.081Z,23.11
2019-03-30T15:28:57.857Z,23.63
2019-03-30T15:31:24.467Z,23.41
2019-03-30T15:33:53.325Z,23.97
2019-03-30T15:36:19.742Z,22.83
2019-03-30T15:38:46.472Z,22.95
2019-03-30T15:41:13.168Z,23.12
2019-03-30T15:43:39.919Z,24.54
2019-03-30T15:46:06.519Z,25.01
2019-03-30T15:48:33.187Z,22.49
2019-03-30T15:50:59.879Z,22.31
2019-03-30T15:53:26.512Z,22.87
2019-03-30T15:55:53.213Z,23.04
2019-03-30T15:58:19.972Z,23.40
2019-03-30T16:00:46.729Z,23.34
2019-03-30T16:03:13.390Z,23.64
2019-03-30T16:05:40.080Z,23.53
2019-03-30T16:08:06.684Z,23.66
2019-03-30T16:10:33.367Z,23.91
2019-03-30T16:13:00.074Z,23.75
2019-03-30T16:15:26.725Z,23.57
2019-03-30T16:17:53.362Z,23.12
2019-03-30T16:20:20.069Z,23.38
2019-03-30T16:22:46.703Z,23.15
2019-03-30T16:25:13.523Z,23.31
2019-03-30T16:27:40.261Z,23.45
2019-03-30T16:30:07.679Z,23.39
2019-03-30T16:32:34.301Z,23.92
2019-03-30T16:35:01.066Z,24.28
2019-03-30T16:37:27.652Z,23.94
2019-03-30T16:39:54.308Z,24.51
2019-03-30T16:42:21.026Z,24.34
2019-03-30T16:44:47.730Z,24.75
2019-03-30T16:47:14.430Z,24.93
2019-03-30T16:49:41.167Z,25.21
2019-03-30T16:52:07.841Z,25.21
2019-03-30T16:54:34.537Z,25.91
2019-03-30T16:57:01.226Z,26.05
2019-03-30T16:59:27.990Z,26.53
2019-03-30T17:01:54.700Z,27.04
2019-03-30T17:04:21.441Z,27.00
2019-03-30T17:06:48.052Z,27.44
2019-03-30T17:09:14.719Z,27.63
2019-03-30T17:11:41.426Z,27.65
2019-03-30T17:14:08.136Z,28.22
2019-03-30T17:16:36.757Z,28.24
2019-03-30T17:19:03.453Z,29.52
2019-03-30T17:21:30.074Z,29.07
2019-03-30T17:23:56.899Z,30.11
2019-03-30T17:26:23.516Z,29.90
2019-03-30T17:28:50.153Z,31.21
2019-03-30T17:31:16.932Z,32.25
2019-03-30T17:33:43.593Z,32.54
2019-03-30T17:36:10.252Z,33.01
2019-03-30T17:38:36.944Z,32.79
2019-03-30T17:41:03.691Z,33.81
2019-03-30T17:43:30.372Z,34.43
2019-03-30T17:45:57.097Z,34.91
2019-03-30T17:48:23.712Z,35.18
2019-03-30T17:50:50.461Z,35.45
2019-03-30T17:53:17.126Z,35.80
2019-03-30T17:55:43.839Z,36.24
2019-03-30T17:58:13.294Z,36.67
2019-03-30T18:00:39.132Z,36.69
2019-03-30T18:03:05.809Z,37.15
2019-03-30T18:05:33.473Z,37.57
2019-03-30T18:08:01.860Z,37.77
2019-03-30T18:10:28.582Z,38.09
2019-03-30T18:12:55.274Z,38.38
2019-03-30T18:15:21.939Z,38.62
2019-03-30T18:17:51.340Z,39.03
2019-03-30T18:20:17.984Z,39.38
2019-03-30T18:22:44.735Z,39.21
2019-03-30T18:25:11.960Z,39.66
2019-03-30T18:27:38.621Z,39.72
2019-03-30T18:30:06.411Z,40.60
2019-03-30T18:32:34.075Z,40.70
2019-03-30T18:35:02.021Z,40.77
2019-03-30T18:37:29.290Z,41.12
2019-03-30T18:39:55.890Z,41.30
2019-03-30T18:42:22.574Z,41.36
2019-03-30T18:44:50.571Z,41.73
2019-03-30T18:47:17.410Z,42.20
2019-03-30T18:49:44.160Z,42.89
2019-03-30T18:52:11.141Z,42.96
2019-03-30T18:54:39.352Z,43.56
2019-03-30T18:57:06.051Z,43.75
2019-03-30T18:59:32.776Z,43.90
2019-03-30T19:01:59.510Z,44.19
2019-03-30T19:04:26.123Z,43.99
2019-03-30T19:06:52.819Z,44.20
2019-03-30T19:09:19.515Z,44.56
2019-03-30T19:11:46.237Z,44.92
2019-03-30T19:14:12.959Z,45.06
2019-03-30T19:16:39.658Z,44.74
2019-03-30T19:19:06.273Z,45.26
2019-03-30T19:21:32.958Z,45.34
2019-03-30T19:23:59.727Z,45.85
2019-03-30T19:26:26.451Z,46.13
2019-03-30T19:28:56.563Z,46.37
2019-03-30T19:31:21.774Z,46.47
2019-03-30T19:33:48.471Z,46.67
2019-03-30T19:36:15.127Z,46.74
2019-03-30T19:38:41.861Z,46.91
2019-03-30T19:41:08.470Z,46.92
2019-03-30T19:43:35.205Z,47.22
2019-03-30T19:46:02.504Z,47.62
2019-03-30T19:48:30.019Z,47.60
2019-03-30T19:50:56.737Z,47.93
2019-03-30T19:53:23.479Z,47.89
2019-03-30T19:55:50.083Z,48.30
2019-03-30T19:58:16.794Z,48.33
2019-03-30T20:00:43.458Z,48.15
2019-03-30T20:03:10.148Z,48.62
2019-03-30T20:05:36.883Z,48.94
2019-03-30T20:08:12.037Z,49.82
2019-03-30T20:10:32.290Z,50.46
2019-03-30T20:12:59.855Z,50.56
2019-03-30T20:15:26.592Z,51.16
2019-03-30T20:17:53.209Z,50.91
2019-03-30T20:20:19.890Z,51.47
2019-03-30T20:22:46.586Z,51.34
2019-03-30T20:25:13.221Z,51.82
2019-03-30T20:27:39.869Z,51.84
2019-03-30T20:30:08.523Z,52.43
2019-03-30T20:32:35.134Z,52.53
2019-03-30T20:35:01.878Z,52.73
2019-03-30T20:37:28.564Z,52.68
2019-03-30T20:39:55.264Z,52.66
2019-03-30T20:42:22.062Z,52.30
2019-03-30T20:44:48.754Z,52.56
2019-03-30T20:47:15.586Z,52.33
2019-03-30T20:49:42.289Z,52.63
2019-03-30T20:52:09.025Z,52.62
2019-03-30T20:54:36.812Z,52.88
2019-03-30T20:57:03.544Z,52.96
2019-03-30T20:59:39.814Z,53.01
2019-03-30T21:01:58.812Z,53.03
2019-03-30T21:04:25.546Z,52.99
2019-03-30T21:06:54.797Z,53.15
2019-03-30T21:09:21.410Z,53.24
2019-03-30T21:11:48.166Z,53.58
2019-03-30T21:14:14.839Z,53.68
2019-03-30T21:16:41.577Z,54.18
2019-03-30T21:19:08.273Z,54.29
2019-03-30T21:21:34.972Z,54.65
2019-03-30T21:24:01.597Z,54.68
2019-03-30T21:26:28.721Z,54.89
2019-03-30T21:28:55.648Z,55.55
2019-03-30T21:31:22.356Z,55.05
2019-03-30T21:33:49.071Z,54.96
2019-03-30T21:36:15.828Z,55.17
2019-03-30T21:38:42.426Z,54.80
2019-03-30T21:41:09.110Z,54.99
2019-03-30T21:43:35.768Z,55.80
2019-03-30T21:46:02.418Z,55.32
2019-03-30T21:48:29.153Z,56.39
2019-03-30T21:50:55.874Z,55.80
2019-03-30T21:53:22.543Z,55.70
2019-03-30T21:55:50.307Z,55.92
2019-03-30T21:58:18.034Z,55.87
2019-03-30T22:00:44.624Z,55.92
2019-03-30T22:03:11.322Z,55.97
2019-03-30T22:05:37.920Z,56.63
2019-03-30T22:08:05.236Z,56.71
2019-03-30T22:10:31.960Z,56.38
2019-03-30T22:12:58.649Z,56.72
2019-03-30T22:15:26.604Z,57.29
2019-03-30T22:17:53.323Z,59.05
2019-03-30T22:20:21.418Z,58.49
2019-03-30T22:22:48.398Z,58.50
2019-03-30T22:25:16.228Z,58.32
2019-03-30T22:27:42.836Z,59.03
2019-03-30T22:30:23.656Z,58.63
2019-03-30T22:32:38.152Z,59.06
2019-03-30T22:35:05.003Z,58.95
2019-03-30T22:37:32.651Z,58.56
2019-03-30T22:39:59.351Z,58.18
2019-03-30T22:42:25.964Z,58.79
2019-03-30T22:44:52.682Z,58.54
2019-03-30T22:47:19.337Z,58.69
2019-03-30T22:49:46.044Z,59.47
2019-03-30T22:52:12.795Z,59.10
2019-03-30T22:54:40.492Z,59.15
2019-03-30T22:57:07.135Z,59.55
2019-03-30T22:59:33.822Z,59.42
2019-03-30T23:02:00.556Z,59.17
2019-03-30T23:04:27.203Z,58.92
2019-03-30T23:06:53.860Z,58.89
2019-03-30T23:09:20.544Z,59.28
2019-03-30T23:11:47.166Z,59.62
2019-03-30T23:14:13.827Z,59.53
2019-03-30T23:16:41.712Z,59.40
2019-03-30T23:19:08.354Z,59.69
2019-03-30T23:21:34.997Z,59.84
2019-03-30T23:24:01.705Z,60.00
2019-03-30T23:26:28.336Z,59.72
2019-03-30T23:28:59.299Z,60.07
2019-03-30T23:31:24.742Z,60.27
2019-03-30T23:33:51.356Z,60.54
2019-03-30T23:36:19.106Z,60.66
2019-03-30T23:38:46.776Z,60.57
2019-03-30T23:41:13.517Z,59.96
2019-03-30T23:43:40.246Z,59.86
2019-03-30T23:46:06.986Z,60.21
2019-03-30T23:48:33.602Z,60.43
2019-03-30T23:51:00.266Z,60.50
2019-03-30T23:53:27.004Z,60.09
2019-03-30T23:55:53.755Z,60.02
2019-03-30T23:58:20.449Z,60.74
